sensor_id;sensor_type;location;lat;lon;timestamp;P1;durP1;ratioP1;P2;durP2;ratioP2
5704;SDS011;2877;48.238;11.160;2023-09-30T00:00:06;24.20;;;10.43;;
5704;SDS011;2877;48.238;11.160;2023-09-30T00:02:34;23.23;;;10.77;;
5704;SDS011;2877;48.238;11.160;2023-09-30T00:05:00;25.60;;;10.83;;
5704;SDS011;2877;48.238;11.160;2023-09-30T00:07:25;32.30;;;11.57;;
5704;SDS011;2877;48.238;11.160;2023-09-30T00:09:51;26.10;;;10.90;;
5704;SDS011;2877;48.238;11.160;2023-09-30T00:12:17;28.73;;;11.83;;
5704;SDS011;2877;48.238;11.160;2023-09-30T00:14:43;25.87;;;11.13;;
5704;SDS011;2877;48.238;11.160;2023-09-30T00:17:08;25.83;;;11.50;;
5704;SDS011;2877;48.238;11.160;2023-09-30T00:19:34;28.27;;;12.13;;
5704;SDS011;2877;48.238;11.160;2023-09-30T00:22:00;29.30;;;11.90;;
5704;SDS011;2877;48.238;11.160;2023-09-30T00:24:25;25.60;;;10.37;;
5704;SDS011;2877;48.238;11.160;2023-09-30T00:26:51;25.60;;;10.67;;
5704;SDS011;2877;48.238;11.160;2023-09-30T00:29:17;30.13;;;11.43;;
5704;SDS011;2877;48.238;11.160;2023-09-30T00:31:43;26.77;;;11.10;;
5704;SDS011;2877;48.238;11.160;2023-09-30T00:34:09;25.00;;;10.30;;
5704;SDS011;2877;48.238;11.160;2023-09-30T00:36:34;23.37;;;10.53;;
5704;SDS011;2877;48.238;11.160;2023-09-30T00:39:00;31.13;;;11.57;;
5704;SDS011;2877;48.238;11.160;2023-09-30T00:41:26;31.40;;;11.70;;
5704;SDS011;2877;48.238;11.160;2023-09-30T00:43:51;25.07;;;11.10;;
5704;SDS011;2877;48.238;11.160;2023-09-30T00:48:53;30.20;;;11.23;;
5704;SDS011;2877;48.238;11.160;2023-09-30T00:51:21;23.63;;;11.43;;
5704;SDS011;2877;48.238;11.160;2023-09-30T00:53:47;27.60;;;11.40;;
5704;SDS011;2877;48.238;11.160;2023-09-30T00:56:13;25.47;;;10.30;;
5704;SDS011;2877;48.238;11.160;2023-09-30T00:58:39;27.50;;;11.07;;
5704;SDS011;2877;48.238;11.160;2023-09-30T01:01:05;25.50;;;10.47;;
5704;SDS011;2877;48.238;11.160;2023-09-30T01:03:32;28.37;;;10.83;;
5704;SDS011;2877;48.238;11.160;2023-09-30T01:05:59;25.63;;;11.47;;
5704;SDS011;2877;48.238;11.160;2023-09-30T01:08:25;28.30;;;11.67;;
5704;SDS011;2877;48.238;11.160;2023-09-30T01:10:52;27.27;;;11.03;;
5704;SDS011;2877;48.238;11.160;2023-09-30T01:13:18;30.20;;;11.60;;
5704;SDS011;2877;48.238;11.160;2023-09-30T01:15:43;29.40;;;12.20;;
5704;SDS011;2877;48.238;11.160;2023-09-30T01:18:09;29.53;;;11.83;;
5704;SDS011;2877;48.238;11.160;2023-09-30T01:20:36;24.20;;;10.90;;
5704;SDS011;2877;48.238;11.160;2023-09-30T01:23:02;22.40;;;10.47;;
5704;SDS011;2877;48.238;11.160;2023-09-30T01:25:28;23.73;;;10.83;;
5704;SDS011;2877;48.238;11.160;2023-09-30T01:27:54;26.80;;;10.60;;
5704;SDS011;2877;48.238;11.160;2023-09-30T01:30:20;28.87;;;11.13;;
5704;SDS011;2877;48.238;11.160;2023-09-30T01:32:48;24.43;;;10.10;;
5704;SDS011;2877;48.238;11.160;2023-09-30T01:35:13;24.13;;;10.40;;
5704;SDS011;2877;48.238;11.160;2023-09-30T01:37:39;28.47;;;11.57;;
5704;SDS011;2877;48.238;11.160;2023-09-30T01:40:06;25.77;;;11.73;;
5704;SDS011;2877;48.238;11.160;2023-09-30T01:42:36;23.70;;;11.27;;
5704;SDS011;2877;48.238;11.160;2023-09-30T01:45:03;28.77;;;10.93;;
5704;SDS011;2877;48.238;11.160;2023-09-30T01:47:28;28.37;;;11.17;;
5704;SDS011;2877;48.238;11.160;2023-09-30T01:49:54;29.93;;;10.60;;
5704;SDS011;2877;48.238;11.160;2023-09-30T01:52:20;26.90;;;10.93;;
5704;SDS011;2877;48.238;11.160;2023-09-30T01:54:46;28.23;;;12.20;;
5704;SDS011;2877;48.238;11.160;2023-09-30T01:57:11;27.90;;;11.87;;
5704;SDS011;2877;48.238;11.160;2023-09-30T01:59:37;26.10;;;11.67;;
5704;SDS011;2877;48.238;11.160;2023-09-30T02:02:02;28.90;;;12.30;;
5704;SDS011;2877;48.238;11.160;2023-09-30T02:04:28;29.33;;;11.93;;
5704;SDS011;2877;48.238;11.160;2023-09-30T02:06:54;29.00;;;12.00;;
5704;SDS011;2877;48.238;11.160;2023-09-30T02:09:20;28.33;;;12.60;;
5704;SDS011;2877;48.238;11.160;2023-09-30T02:11:45;25.17;;;11.50;;
5704;SDS011;2877;48.238;11.160;2023-09-30T02:14:11;26.40;;;11.70;;
5704;SDS011;2877;48.238;11.160;2023-09-30T02:16:37;24.13;;;10.30;;
5704;SDS011;2877;48.238;11.160;2023-09-30T02:19:03;27.67;;;11.10;;
5704;SDS011;2877;48.238;11.160;2023-09-30T02:21:29;23.23;;;10.47;;
5704;SDS011;2877;48.238;11.160;2023-09-30T02:23:55;27.53;;;11.10;;
5704;SDS011;2877;48.238;11.160;2023-09-30T02:26:20;29.63;;;11.33;;
5704;SDS011;2877;48.238;11.160;2023-09-30T02:28:46;30.27;;;12.23;;
5704;SDS011;2877;48.238;11.160;2023-09-30T02:31:12;23.97;;;11.40;;
5704;SDS011;2877;48.238;11.160;2023-09-30T02:33:38;22.43;;;11.00;;
5704;SDS011;2877;48.238;11.160;2023-09-30T02:36:06;28.63;;;11.90;;
5704;SDS011;2877;48.238;11.160;2023-09-30T02:38:32;26.80;;;10.67;;
5704;SDS011;2877;48.238;11.160;2023-09-30T02:40:58;28.27;;;10.70;;
5704;SDS011;2877;48.238;11.160;2023-09-30T02:43:23;28.73;;;10.57;;
5704;SDS011;2877;48.238;11.160;2023-09-30T02:45:49;22.80;;;10.27;;
5704;SDS011;2877;48.238;11.160;2023-09-30T02:48:15;25.13;;;10.60;;
5704;SDS011;2877;48.238;11.160;2023-09-30T02:50:43;28.00;;;11.27;;
5704;SDS011;2877;48.238;11.160;2023-09-30T02:53:10;24.33;;;10.50;;
5704;SDS011;2877;48.238;11.160;2023-09-30T02:55:37;26.10;;;10.30;;
5704;SDS011;2877;48.238;11.160;2023-09-30T02:58:03;23.60;;;10.73;;
5704;SDS011;2877;48.238;11.160;2023-09-30T03:00:29;23.60;;;10.90;;
5704;SDS011;2877;48.238;11.160;2023-09-30T03:02:59;25.00;;;9.90;;
5704;SDS011;2877;48.238;11.160;2023-09-30T03:05:26;26.23;;;11.50;;
5704;SDS011;2877;48.238;11.160;2023-09-30T03:07:52;25.67;;;10.60;;
5704;SDS011;2877;48.238;11.160;2023-09-30T03:10:19;25.93;;;10.80;;
5704;SDS011;2877;48.238;11.160;2023-09-30T03:12:48;27.97;;;10.67;;
5704;SDS011;2877;48.238;11.160;2023-09-30T03:15:14;24.37;;;10.13;;
5704;SDS011;2877;48.238;11.160;2023-09-30T03:17:41;23.37;;;9.93;;
5704;SDS011;2877;48.238;11.160;2023-09-30T03:20:07;22.00;;;9.30;;
5704;SDS011;2877;48.238;11.160;2023-09-30T03:22:37;26.50;;;10.70;;
5704;SDS011;2877;48.238;11.160;2023-09-30T03:25:04;25.30;;;9.97;;
5704;SDS011;2877;48.238;11.160;2023-09-30T03:27:32;26.90;;;10.40;;
5704;SDS011;2877;48.238;11.160;2023-09-30T03:29:59;24.10;;;10.10;;
5704;SDS011;2877;48.238;11.160;2023-09-30T03:32:26;25.43;;;10.87;;
5704;SDS011;2877;48.238;11.160;2023-09-30T03:34:52;22.80;;;9.23;;
5704;SDS011;2877;48.238;11.160;2023-09-30T03:37:17;23.20;;;9.50;;
5704;SDS011;2877;48.238;11.160;2023-09-30T03:39:43;20.03;;;9.50;;
5704;SDS011;2877;48.238;11.160;2023-09-30T03:42:08;18.97;;;9.40;;
5704;SDS011;2877;48.238;11.160;2023-09-30T03:44:36;21.70;;;9.70;;
5704;SDS011;2877;48.238;11.160;2023-09-30T03:47:03;24.10;;;9.80;;
5704;SDS011;2877;48.238;11.160;2023-09-30T03:49:29;25.90;;;9.97;;
5704;SDS011;2877;48.238;11.160;2023-09-30T03:51:56;22.93;;;9.77;;
5704;SDS011;2877;48.238;11.160;2023-09-30T03:54:22;23.50;;;9.47;;
5704;SDS011;2877;48.238;11.160;2023-09-30T03:56:48;21.70;;;9.30;;
5704;SDS011;2877;48.238;11.160;2023-09-30T03:59:14;22.23;;;9.43;;
5704;SDS011;2877;48.238;11.160;2023-09-30T04:01:41;19.67;;;8.77;;
5704;SDS011;2877;48.238;11.160;2023-09-30T04:04:07;21.87;;;9.37;;
5704;SDS011;2877;48.238;11.160;2023-09-30T04:06:34;21.40;;;8.37;;
5704;SDS011;2877;48.238;11.160;2023-09-30T04:09:03;20.40;;;8.30;;
5704;SDS011;2877;48.238;11.160;2023-09-30T04:11:34;22.13;;;8.40;;
5704;SDS011;2877;48.238;11.160;2023-09-30T04:14:01;23.80;;;9.00;;
5704;SDS011;2877;48.238;11.160;2023-09-30T04:16:26;22.70;;;8.20;;
5704;SDS011;2877;48.238;11.160;2023-09-30T04:18:54;23.17;;;9.63;;
5704;SDS011;2877;48.238;11.160;2023-09-30T04:21:20;23.13;;;9.50;;
5704;SDS011;2877;48.238;11.160;2023-09-30T04:23:45;21.63;;;9.73;;
5704;SDS011;2877;48.238;11.160;2023-09-30T04:26:11;24.50;;;9.77;;
5704;SDS011;2877;48.238;11.160;2023-09-30T04:28:37;23.93;;;9.73;;
5704;SDS011;2877;48.238;11.160;2023-09-30T04:31:03;23.07;;;9.30;;
5704;SDS011;2877;48.238;11.160;2023-09-30T04:33:29;27.13;;;8.20;;
5704;SDS011;2877;48.238;11.160;2023-09-30T04:35:55;23.33;;;9.60;;
5704;SDS011;2877;48.238;11.160;2023-09-30T04:38:20;22.60;;;8.90;;
5704;SDS011;2877;48.238;11.160;2023-09-30T04:40:46;21.73;;;9.27;;
5704;SDS011;2877;48.238;11.160;2023-09-30T04:43:16;20.40;;;8.90;;
5704;SDS011;2877;48.238;11.160;2023-09-30T04:45:42;16.57;;;7.90;;
5704;SDS011;2877;48.238;11.160;2023-09-30T04:48:08;21.43;;;9.00;;
5704;SDS011;2877;48.238;11.160;2023-09-30T04:50:33;20.93;;;8.77;;
5704;SDS011;2877;48.238;11.160;2023-09-30T04:52:59;20.90;;;9.50;;
5704;SDS011;2877;48.238;11.160;2023-09-30T04:55:25;18.30;;;7.80;;
5704;SDS011;2877;48.238;11.160;2023-09-30T04:57:51;19.23;;;8.47;;
5704;SDS011;2877;48.238;11.160;2023-09-30T05:00:18;20.87;;;8.60;;
5704;SDS011;2877;48.238;11.160;2023-09-30T05:02:50;18.87;;;8.20;;
5704;SDS011;2877;48.238;11.160;2023-09-30T05:05:17;17.20;;;7.63;;
5704;SDS011;2877;48.238;11.160;2023-09-30T05:07:43;20.67;;;9.00;;
5704;SDS011;2877;48.238;11.160;2023-09-30T05:10:11;19.57;;;8.43;;
5704;SDS011;2877;48.238;11.160;2023-09-30T05:12:40;19.43;;;8.93;;
5704;SDS011;2877;48.238;11.160;2023-09-30T05:15:13;17.33;;;6.90;;
5704;SDS011;2877;48.238;11.160;2023-09-30T05:17:40;16.63;;;7.93;;
5704;SDS011;2877;48.238;11.160;2023-09-30T05:20:09;21.50;;;8.40;;
5704;SDS011;2877;48.238;11.160;2023-09-30T05:22:37;23.07;;;7.90;;
5704;SDS011;2877;48.238;11.160;2023-09-30T05:25:05;21.77;;;7.43;;
5704;SDS011;2877;48.238;11.160;2023-09-30T05:27:32;20.30;;;7.87;;
5704;SDS011;2877;48.238;11.160;2023-09-30T05:29:58;24.07;;;9.33;;
5704;SDS011;2877;48.238;11.160;2023-09-30T05:32:23;20.67;;;8.07;;
5704;SDS011;2877;48.238;11.160;2023-09-30T05:34:51;19.63;;;8.13;;
5704;SDS011;2877;48.238;11.160;2023-09-30T05:37:17;18.73;;;7.80;;
5704;SDS011;2877;48.238;11.160;2023-09-30T05:39:46;19.33;;;8.07;;
5704;SDS011;2877;48.238;11.160;2023-09-30T05:42:13;18.50;;;7.70;;
5704;SDS011;2877;48.238;11.160;2023-09-30T05:44:40;17.73;;;7.20;;
5704;SDS011;2877;48.238;11.160;2023-09-30T05:47:06;17.87;;;8.07;;
5704;SDS011;2877;48.238;11.160;2023-09-30T05:49:33;16.80;;;8.17;;
5704;SDS011;2877;48.238;11.160;2023-09-30T05:51:58;20.80;;;7.47;;
5704;SDS011;2877;48.238;11.160;2023-09-30T05:54:24;17.43;;;7.83;;
5704;SDS011;2877;48.238;11.160;2023-09-30T05:56:50;17.87;;;8.13;;
5704;SDS011;2877;48.238;11.160;2023-09-30T05:59:15;21.70;;;7.83;;
5704;SDS011;2877;48.238;11.160;2023-09-30T06:01:41;15.87;;;6.67;;
5704;SDS011;2877;48.238;11.160;2023-09-30T06:04:07;15.27;;;6.43;;
5704;SDS011;2877;48.238;11.160;2023-09-30T06:06:33;14.53;;;7.23;;
5704;SDS011;2877;48.238;11.160;2023-09-30T06:08:59;16.37;;;6.80;;
5704;SDS011;2877;48.238;11.160;2023-09-30T06:11:24;15.63;;;7.27;;
5704;SDS011;2877;48.238;11.160;2023-09-30T06:13:56;17.50;;;6.87;;
5704;SDS011;2877;48.238;11.160;2023-09-30T06:16:26;15.40;;;6.70;;
5704;SDS011;2877;48.238;11.160;2023-09-30T06:18:52;15.70;;;6.77;;
5704;SDS011;2877;48.238;11.160;2023-09-30T06:21:19;13.80;;;6.47;;
5704;SDS011;2877;48.238;11.160;2023-09-30T06:23:49;15.83;;;6.93;;
5704;SDS011;2877;48.238;11.160;2023-09-30T06:26:17;14.93;;;7.40;;
5704;SDS011;2877;48.238;11.160;2023-09-30T06:28:42;14.17;;;6.20;;
5704;SDS011;2877;48.238;11.160;2023-09-30T06:31:08;13.70;;;6.50;;
5704;SDS011;2877;48.238;11.160;2023-09-30T06:33:35;19.30;;;6.30;;
5704;SDS011;2877;48.238;11.160;2023-09-30T06:36:08;13.10;;;5.80;;
5704;SDS011;2877;48.238;11.160;2023-09-30T06:38:34;14.73;;;6.20;;
5704;SDS011;2877;48.238;11.160;2023-09-30T06:41:01;16.80;;;6.63;;
5704;SDS011;2877;48.238;11.160;2023-09-30T06:43:27;13.17;;;6.77;;
5704;SDS011;2877;48.238;11.160;2023-09-30T06:45:53;11.77;;;5.90;;
5704;SDS011;2877;48.238;11.160;2023-09-30T06:48:19;15.50;;;6.27;;
5704;SDS011;2877;48.238;11.160;2023-09-30T06:50:47;13.60;;;6.03;;
5704;SDS011;2877;48.238;11.160;2023-09-30T06:53:14;11.23;;;5.80;;
5704;SDS011;2877;48.238;11.160;2023-09-30T06:55:41;16.53;;;6.40;;
5704;SDS011;2877;48.238;11.160;2023-09-30T06:58:08;12.33;;;5.70;;
5704;SDS011;2877;48.238;11.160;2023-09-30T07:00:35;14.73;;;6.70;;
5704;SDS011;2877;48.238;11.160;2023-09-30T07:03:01;15.00;;;6.67;;
5704;SDS011;2877;48.238;11.160;2023-09-30T07:05:27;12.87;;;6.03;;
5704;SDS011;2877;48.238;11.160;2023-09-30T07:07:54;12.77;;;5.50;;
5704;SDS011;2877;48.238;11.160;2023-09-30T07:10:19;14.13;;;5.93;;
5704;SDS011;2877;48.238;11.160;2023-09-30T07:12:45;11.40;;;5.53;;
5704;SDS011;2877;48.238;11.160;2023-09-30T07:15:10;12.07;;;5.87;;
5704;SDS011;2877;48.238;11.160;2023-09-30T07:17:36;13.63;;;6.10;;
5704;SDS011;2877;48.238;11.160;2023-09-30T07:20:03;11.77;;;6.00;;
5704;SDS011;2877;48.238;11.160;2023-09-30T07:22:30;13.17;;;5.40;;
5704;SDS011;2877;48.238;11.160;2023-09-30T07:24:56;10.37;;;5.40;;
5704;SDS011;2877;48.238;11.160;2023-09-30T07:27:23;12.77;;;6.23;;
5704;SDS011;2877;48.238;11.160;2023-09-30T07:29:49;11.90;;;5.90;;
5704;SDS011;2877;48.238;11.160;2023-09-30T07:32:14;10.83;;;5.40;;
5704;SDS011;2877;48.238;11.160;2023-09-30T07:34:40;11.03;;;5.00;;
5704;SDS011;2877;48.238;11.160;2023-09-30T07:37:05;11.93;;;5.53;;
5704;SDS011;2877;48.238;11.160;2023-09-30T07:39:31;10.87;;;5.43;;
5704;SDS011;2877;48.238;11.160;2023-09-30T07:41:57;12.20;;;5.80;;
5704;SDS011;2877;48.238;11.160;2023-09-30T07:44:22;10.70;;;5.17;;
5704;SDS011;2877;48.238;11.160;2023-09-30T07:46:48;10.20;;;5.77;;
5704;SDS011;2877;48.238;11.160;2023-09-30T07:49:13;11.53;;;5.10;;
5704;SDS011;2877;48.238;11.160;2023-09-30T07:51:39;10.70;;;6.10;;
5704;SDS011;2877;48.238;11.160;2023-09-30T07:54:05;12.00;;;5.50;;
5704;SDS011;2877;48.238;11.160;2023-09-30T07:56:31;11.40;;;5.30;;
5704;SDS011;2877;48.238;11.160;2023-09-30T07:58:57;8.60;;;5.20;;
5704;SDS011;2877;48.238;11.160;2023-09-30T08:01:22;11.80;;;4.50;;
5704;SDS011;2877;48.238;11.160;2023-09-30T08:03:48;9.47;;;4.77;;
5704;SDS011;2877;48.238;11.160;2023-09-30T08:06:14;14.80;;;5.17;;
5704;SDS011;2877;48.238;11.160;2023-09-30T08:08:39;10.80;;;4.87;;
5704;SDS011;2877;48.238;11.160;2023-09-30T08:11:05;8.80;;;4.53;;
5704;SDS011;2877;48.238;11.160;2023-09-30T08:13:32;10.57;;;5.20;;
5704;SDS011;2877;48.238;11.160;2023-09-30T08:15:58;9.70;;;4.40;;
5704;SDS011;2877;48.238;11.160;2023-09-30T08:18:24;9.33;;;4.57;;
5704;SDS011;2877;48.238;11.160;2023-09-30T08:20:50;10.20;;;4.60;;
5704;SDS011;2877;48.238;11.160;2023-09-30T08:23:15;7.60;;;4.30;;
5704;SDS011;2877;48.238;11.160;2023-09-30T08:25:41;9.80;;;4.37;;
5704;SDS011;2877;48.238;11.160;2023-09-30T08:28:07;10.03;;;4.50;;
5704;SDS011;2877;48.238;11.160;2023-09-30T08:30:34;9.20;;;4.30;;
5704;SDS011;2877;48.238;11.160;2023-09-30T08:33:00;8.73;;;4.43;;
5704;SDS011;2877;48.238;11.160;2023-09-30T08:35:28;9.40;;;4.57;;
5704;SDS011;2877;48.238;11.160;2023-09-30T08:37:54;7.97;;;4.10;;
5704;SDS011;2877;48.238;11.160;2023-09-30T08:40:20;8.50;;;4.40;;
5704;SDS011;2877;48.238;11.160;2023-09-30T08:42:48;9.60;;;4.67;;
5704;SDS011;2877;48.238;11.160;2023-09-30T08:45:17;7.77;;;4.23;;
5704;SDS011;2877;48.238;11.160;2023-09-30T08:47:43;11.27;;;5.00;;
5704;SDS011;2877;48.238;11.160;2023-09-30T08:50:10;8.90;;;4.13;;
5704;SDS011;2877;48.238;11.160;2023-09-30T08:52:39;10.73;;;4.63;;
5704;SDS011;2877;48.238;11.160;2023-09-30T08:55:10;10.30;;;4.47;;
5704;SDS011;2877;48.238;11.160;2023-09-30T08:57:37;9.13;;;4.57;;
5704;SDS011;2877;48.238;11.160;2023-09-30T09:00:12;13.30;;;4.90;;
5704;SDS011;2877;48.238;11.160;2023-09-30T09:02:38;10.50;;;5.03;;
5704;SDS011;2877;48.238;11.160;2023-09-30T09:05:04;10.87;;;4.60;;
5704;SDS011;2877;48.238;11.160;2023-09-30T09:07:31;8.97;;;3.87;;
5704;SDS011;2877;48.238;11.160;2023-09-30T09:12:38;8.77;;;4.00;;
5704;SDS011;2877;48.238;11.160;2023-09-30T09:15:05;5.90;;;3.60;;
5704;SDS011;2877;48.238;11.160;2023-09-30T09:17:39;6.73;;;3.73;;
5704;SDS011;2877;48.238;11.160;2023-09-30T09:20:07;11.10;;;4.80;;
5704;SDS011;2877;48.238;11.160;2023-09-30T09:22:38;6.73;;;3.60;;
5704;SDS011;2877;48.238;11.160;2023-09-30T09:25:07;8.27;;;4.63;;
5704;SDS011;2877;48.238;11.160;2023-09-30T09:27:33;7.03;;;3.87;;
5704;SDS011;2877;48.238;11.160;2023-09-30T09:32:51;6.80;;;3.60;;
5704;SDS011;2877;48.238;11.160;2023-09-30T09:35:20;7.23;;;3.90;;
5704;SDS011;2877;48.238;11.160;2023-09-30T09:40:25;8.83;;;4.23;;
5704;SDS011;2877;48.238;11.160;2023-09-30T09:42:53;10.40;;;3.97;;
5704;SDS011;2877;48.238;11.160;2023-09-30T09:45:21;8.80;;;3.50;;
5704;SDS011;2877;48.238;11.160;2023-09-30T09:47:51;7.93;;;3.67;;
5704;SDS011;2877;48.238;11.160;2023-09-30T09:50:18;10.37;;;4.57;;
5704;SDS011;2877;48.238;11.160;2023-09-30T09:52:46;7.33;;;3.80;;
5704;SDS011;2877;48.238;11.160;2023-09-30T09:55:15;16.27;;;4.27;;
5704;SDS011;2877;48.238;11.160;2023-09-30T09:57:44;9.07;;;4.23;;
5704;SDS011;2877;48.238;11.160;2023-09-30T10:00:11;8.60;;;4.10;;
5704;SDS011;2877;48.238;11.160;2023-09-30T10:02:40;6.23;;;3.50;;
5704;SDS011;2877;48.238;11.160;2023-09-30T10:05:06;9.00;;;3.93;;
5704;SDS011;2877;48.238;11.160;2023-09-30T10:07:33;11.77;;;4.30;;
5704;SDS011;2877;48.238;11.160;2023-09-30T10:10:02;6.27;;;3.30;;
5704;SDS011;2877;48.238;11.160;2023-09-30T10:12:36;5.77;;;3.30;;
5704;SDS011;2877;48.238;11.160;2023-09-30T10:18:01;7.20;;;3.80;;
5704;SDS011;2877;48.238;11.160;2023-09-30T10:20:40;7.50;;;3.73;;
5704;SDS011;2877;48.238;11.160;2023-09-30T10:23:22;9.10;;;4.10;;
5704;SDS011;2877;48.238;11.160;2023-09-30T10:25:50;7.20;;;3.80;;
5704;SDS011;2877;48.238;11.160;2023-09-30T10:28:32;8.00;;;4.00;;
5704;SDS011;2877;48.238;11.160;2023-09-30T10:31:10;6.53;;;4.03;;
5704;SDS011;2877;48.238;11.160;2023-09-30T10:33:39;7.27;;;3.73;;
5704;SDS011;2877;48.238;11.160;2023-09-30T10:36:30;7.40;;;4.20;;
5704;SDS011;2877;48.238;11.160;2023-09-30T10:39:03;6.73;;;3.43;;
5704;SDS011;2877;48.238;11.160;2023-09-30T10:46:51;7.90;;;3.30;;
5704;SDS011;2877;48.238;11.160;2023-09-30T10:51:52;6.50;;;3.87;;
5704;SDS011;2877;48.238;11.160;2023-09-30T10:54:37;8.70;;;4.17;;
5704;SDS011;2877;48.238;11.160;2023-09-30T10:57:03;10.10;;;4.23;;
5704;SDS011;2877;48.238;11.160;2023-09-30T10:59:29;6.27;;;4.17;;
5704;SDS011;2877;48.238;11.160;2023-09-30T11:01:55;6.73;;;3.97;;
5704;SDS011;2877;48.238;11.160;2023-09-30T11:04:21;11.27;;;4.90;;
5704;SDS011;2877;48.238;11.160;2023-09-30T11:06:47;6.80;;;3.73;;
5704;SDS011;2877;48.238;11.160;2023-09-30T11:09:15;11.47;;;4.37;;
5704;SDS011;2877;48.238;11.160;2023-09-30T11:11:43;8.87;;;4.93;;
5704;SDS011;2877;48.238;11.160;2023-09-30T11:16:57;6.57;;;4.43;;
5704;SDS011;2877;48.238;11.160;2023-09-30T11:19:24;10.73;;;4.47;;
5704;SDS011;2877;48.238;11.160;2023-09-30T11:21:51;8.07;;;3.83;;
5704;SDS011;2877;48.238;11.160;2023-09-30T11:24:17;12.77;;;4.50;;
5704;SDS011;2877;48.238;11.160;2023-09-30T11:26:44;12.13;;;5.07;;
5704;SDS011;2877;48.238;11.160;2023-09-30T11:29:11;8.20;;;4.00;;
5704;SDS011;2877;48.238;11.160;2023-09-30T11:31:38;9.87;;;4.83;;
5704;SDS011;2877;48.238;11.160;2023-09-30T11:34:08;10.73;;;5.00;;
5704;SDS011;2877;48.238;11.160;2023-09-30T11:36:38;16.13;;;6.50;;
5704;SDS011;2877;48.238;11.160;2023-09-30T11:39:07;11.27;;;5.10;;
5704;SDS011;2877;48.238;11.160;2023-09-30T11:41:37;10.50;;;4.30;;
5704;SDS011;2877;48.238;11.160;2023-09-30T11:46:32;10.07;;;5.17;;
5704;SDS011;2877;48.238;11.160;2023-09-30T11:49:12;9.40;;;5.23;;
5704;SDS011;2877;48.238;11.160;2023-09-30T11:51:44;8.57;;;4.87;;
5704;SDS011;2877;48.238;11.160;2023-09-30T11:54:13;10.10;;;5.13;;
5704;SDS011;2877;48.238;11.160;2023-09-30T11:56:39;11.60;;;5.47;;
5704;SDS011;2877;48.238;11.160;2023-09-30T11:59:05;13.10;;;5.87;;
5704;SDS011;2877;48.238;11.160;2023-09-30T12:01:31;12.17;;;5.10;;
5704;SDS011;2877;48.238;11.160;2023-09-30T12:03:57;15.80;;;6.57;;
5704;SDS011;2877;48.238;11.160;2023-09-30T12:06:26;9.97;;;5.77;;
5704;SDS011;2877;48.238;11.160;2023-09-30T12:08:51;11.27;;;6.20;;
5704;SDS011;2877;48.238;11.160;2023-09-30T12:11:18;15.80;;;6.60;;
5704;SDS011;2877;48.238;11.160;2023-09-30T12:13:43;16.43;;;7.30;;
5704;SDS011;2877;48.238;11.160;2023-09-30T12:16:10;15.70;;;6.53;;
5704;SDS011;2877;48.238;11.160;2023-09-30T12:18:37;15.07;;;5.90;;
5704;SDS011;2877;48.238;11.160;2023-09-30T12:21:03;11.37;;;5.23;;
5704;SDS011;2877;48.238;11.160;2023-09-30T12:23:31;12.43;;;6.30;;
5704;SDS011;2877;48.238;11.160;2023-09-30T12:25:57;12.93;;;6.77;;
5704;SDS011;2877;48.238;11.160;2023-09-30T12:28:22;12.10;;;5.60;;
5704;SDS011;2877;48.238;11.160;2023-09-30T12:30:48;12.73;;;6.67;;
5704;SDS011;2877;48.238;11.160;2023-09-30T12:33:13;12.40;;;6.57;;
5704;SDS011;2877;48.238;11.160;2023-09-30T12:35:39;26.33;;;7.27;;
5704;SDS011;2877;48.238;11.160;2023-09-30T12:38:04;12.40;;;6.60;;
5704;SDS011;2877;48.238;11.160;2023-09-30T12:40:30;14.93;;;6.73;;
5704;SDS011;2877;48.238;11.160;2023-09-30T12:42:55;12.97;;;6.20;;
5704;SDS011;2877;48.238;11.160;2023-09-30T12:45:22;12.30;;;5.93;;
5704;SDS011;2877;48.238;11.160;2023-09-30T12:47:48;12.73;;;5.80;;
5704;SDS011;2877;48.238;11.160;2023-09-30T12:50:17;14.50;;;6.47;;
5704;SDS011;2877;48.238;11.160;2023-09-30T12:52:42;16.33;;;6.80;;
5704;SDS011;2877;48.238;11.160;2023-09-30T12:55:09;16.50;;;7.17;;
5704;SDS011;2877;48.238;11.160;2023-09-30T12:57:36;13.90;;;7.00;;
5704;SDS011;2877;48.238;11.160;2023-09-30T13:00:01;18.17;;;7.30;;
5704;SDS011;2877;48.238;11.160;2023-09-30T13:02:28;10.93;;;5.77;;
5704;SDS011;2877;48.238;11.160;2023-09-30T13:04:54;13.13;;;6.67;;
5704;SDS011;2877;48.238;11.160;2023-09-30T13:07:19;16.57;;;7.80;;
5704;SDS011;2877;48.238;11.160;2023-09-30T13:09:45;11.80;;;6.57;;
5704;SDS011;2877;48.238;11.160;2023-09-30T13:12:11;16.83;;;7.50;;
5704;SDS011;2877;48.238;11.160;2023-09-30T13:14:36;14.50;;;6.77;;
5704;SDS011;2877;48.238;11.160;2023-09-30T13:17:03;12.30;;;6.57;;
5704;SDS011;2877;48.238;11.160;2023-09-30T13:19:29;16.53;;;6.80;;
5704;SDS011;2877;48.238;11.160;2023-09-30T13:21:54;13.87;;;7.20;;
5704;SDS011;2877;48.238;11.160;2023-09-30T13:24:20;12.97;;;6.60;;
5704;SDS011;2877;48.238;11.160;2023-09-30T13:26:46;15.13;;;6.30;;
5704;SDS011;2877;48.238;11.160;2023-09-30T13:29:13;12.47;;;6.63;;
5704;SDS011;2877;48.238;11.160;2023-09-30T13:31:41;15.57;;;6.93;;
5704;SDS011;2877;48.238;11.160;2023-09-30T13:34:07;17.07;;;7.30;;
5704;SDS011;2877;48.238;11.160;2023-09-30T13:36:33;14.53;;;6.90;;
5704;SDS011;2877;48.238;11.160;2023-09-30T13:38:58;13.53;;;6.97;;
5704;SDS011;2877;48.238;11.160;2023-09-30T13:41:24;15.80;;;7.03;;
5704;SDS011;2877;48.238;11.160;2023-09-30T13:43:50;13.50;;;7.10;;
5704;SDS011;2877;48.238;11.160;2023-09-30T13:46:15;14.00;;;7.07;;
5704;SDS011;2877;48.238;11.160;2023-09-30T13:48:41;12.50;;;6.50;;
5704;SDS011;2877;48.238;11.160;2023-09-30T13:51:10;16.07;;;7.00;;
5704;SDS011;2877;48.238;11.160;2023-09-30T13:53:38;16.50;;;7.27;;
5704;SDS011;2877;48.238;11.160;2023-09-30T13:56:04;13.53;;;6.87;;
5704;SDS011;2877;48.238;11.160;2023-09-30T13:58:31;14.90;;;6.27;;
5704;SDS011;2877;48.238;11.160;2023-09-30T14:00:57;16.97;;;7.20;;
5704;SDS011;2877;48.238;11.160;2023-09-30T14:03:22;18.53;;;7.60;;
5704;SDS011;2877;48.238;11.160;2023-09-30T14:05:51;13.50;;;6.93;;
5704;SDS011;2877;48.238;11.160;2023-09-30T14:08:18;15.03;;;6.80;;
5704;SDS011;2877;48.238;11.160;2023-09-30T14:10:43;14.53;;;6.87;;
5704;SDS011;2877;48.238;11.160;2023-09-30T14:13:09;12.40;;;5.97;;
5704;SDS011;2877;48.238;11.160;2023-09-30T14:15:35;14.47;;;5.67;;
5704;SDS011;2877;48.238;11.160;2023-09-30T14:18:02;12.33;;;6.77;;
5704;SDS011;2877;48.238;11.160;2023-09-30T14:20:28;15.93;;;6.73;;
5704;SDS011;2877;48.238;11.160;2023-09-30T14:22:54;13.07;;;6.80;;
5704;SDS011;2877;48.238;11.160;2023-09-30T14:25:22;12.77;;;6.80;;
5704;SDS011;2877;48.238;11.160;2023-09-30T14:27:48;11.13;;;6.00;;
5704;SDS011;2877;48.238;11.160;2023-09-30T14:30:14;15.10;;;6.93;;
5704;SDS011;2877;48.238;11.160;2023-09-30T14:32:40;14.30;;;6.73;;
5704;SDS011;2877;48.238;11.160;2023-09-30T14:35:07;12.43;;;6.80;;
5704;SDS011;2877;48.238;11.160;2023-09-30T14:37:34;14.30;;;7.17;;
5704;SDS011;2877;48.238;11.160;2023-09-30T14:40:00;14.13;;;6.37;;
5704;SDS011;2877;48.238;11.160;2023-09-30T14:42:26;15.10;;;6.40;;
5704;SDS011;2877;48.238;11.160;2023-09-30T14:44:51;13.57;;;6.20;;
5704;SDS011;2877;48.238;11.160;2023-09-30T14:47:17;16.60;;;7.87;;
5704;SDS011;2877;48.238;11.160;2023-09-30T14:49:43;17.93;;;7.17;;
5704;SDS011;2877;48.238;11.160;2023-09-30T14:52:08;14.90;;;6.60;;
5704;SDS011;2877;48.238;11.160;2023-09-30T14:54:34;14.50;;;6.40;;
5704;SDS011;2877;48.238;11.160;2023-09-30T14:57:01;13.73;;;7.70;;
5704;SDS011;2877;48.238;11.160;2023-09-30T14:59:26;17.03;;;7.60;;
5704;SDS011;2877;48.238;11.160;2023-09-30T15:01:52;15.53;;;7.27;;
5704;SDS011;2877;48.238;11.160;2023-09-30T15:04:18;11.10;;;5.87;;
5704;SDS011;2877;48.238;11.160;2023-09-30T15:06:44;16.33;;;6.20;;
5704;SDS011;2877;48.238;11.160;2023-09-30T15:09:10;14.10;;;6.20;;
5704;SDS011;2877;48.238;11.160;2023-09-30T15:11:37;17.50;;;6.70;;